SVMG/PMV METAR and TAF weather

Enter ICAO airport designator
Station Type Date Time Source
SVMG METAR 2020/03/29 14:02 UTC NOAA

SVMG 291402Z AUTO 09014KT NCD 26/25 Q1015


Station Type Date Time Source
SVMG Decoded METAR 2020/03/29 14:02 UTC NOAA

Margarita / Del Carib, Venezuela (SVMG) 10-55N 063-59W
Mar 29, 2020 - 10:02 AM EDT / 2020.03.29 1402 UTC
Wind: from the E (090 degrees) at 16 MPH (14 KT):0
Temperature: 78 F (26 C)
Dew Point: 77 F (25 C)
Relative Humidity: 94%
Pressure (altimeter): 29.97 in. Hg (1015 hPa)
ob: SVMG 291402Z AUTO 09014KT NCD 26/25 Q1015
cycle: 14

Station Type Date Time Source
SVMG TAF 2020/03/29 12:09 UTC NOAA

TAF SVMG 291000Z 2912/3012 09008KT 9999 FEW020 TX31/19Z TN24/09Z
BECMG 2912/2916 09009KT FEW020 SCT070

Example: see airport list